Etusivu
METAR-TAF:

METAR-TAF

Lentoasemat :

Clinton Municipal Airport

Clinton, Iowa, Yhdysvallat

Leveyspiiri: 41-50N, Pituuspiiri: 090-20W, korkeus merenpinnasta: 216 m

Tämänhetkinen sää

Tämä raportti tehtiin 1 tunti ja 1 minuuttia sitten, kello 19.56 UTC
Tuuli 17 kn pohjoisesta puuskistuen 23 kn:hen
Lämpötila -1°C
Kosteus 64%
Ilmanpaine 1021 hPa
Näkyvyys: 16.1 km
Pilvistä 3700 ft:n korkeudessa

METAR: KCWI 261956Z AUTO 35017G23KT 10SM OVC037 M01/M07 A3015 RMK AO2 SLP223 T10061072 FZRANO

Aika: 14:57 (20:57 UTC)


TAF: puuttuu

Säähavainnot ja -ennusteet yli 4000 lentoasemalta (METAR- ja TAF-raportit).

Käytössä olevat sääasemat on merkitty karttaan keltaisilla ja punaisilla pisteillä.

Aseta hiiri pisteen päälle nähdäksesi sääaseman nimen.

Klikkaa sitten nähdäksesi säähavainnot ja -ennusteet.

Kartan vaihtaminen: klikkaa mustalla rastilla varustettuja vihreitä pisteitä, niin voit zoomata sisään; viivalla varustettua vihreää pistettä, niin voit zoomata ulos tai vihreitä nuolia, niin pääset viereisille kartoille.


METAR-TAF: